UAE33M VAAH-OMDB
Flight info
| Callsign | UAE33M |
|---|---|
| Flight time | 2h 20m |
| Altitude | 40000 |
| Route | AAE L639 RASKI L301 RAGMA N571 VUSET A454 PASOV B540 KUPMA/N0445F240 B540 MIVEK P574 IMPED |
| Aircraft | A359/H-SDE2E3GHIJ3J4J5LM1ORWXY/LB1D1 |
Departure
| Time | 2026-04-22 22:43 |
|---|---|
| Airport | Sardar Vallabh Patel International Airport (VAAH) |
Arrival
| Time | 2026-04-23 01:03 |
|---|---|
| Airport | Dubai International Airport (OMDB) |
| Time | Latitude | Longitude | Altitude | Speed | Heading |
|---|---|---|---|---|---|
| 2026-04-22 22:20 | 23.07329 | 72.62415 | 192 ft | 0 kts | 315° |
| 2026-04-22 22:31 | 23.07327 | 72.62417 | 192 ft | 1 kts | 315° |
| 2026-04-22 22:31 | 23.07314 | 72.62431 | 209 ft | 3 kts | 315° |
| 2026-04-22 22:32 | 23.07299 | 72.62446 | 207 ft | 3 kts | 316° |
| 2026-04-22 22:32 | 23.07285 | 72.62461 | 207 ft | 3 kts | 316° |
| 2026-04-22 22:32 | 23.07270 | 72.62477 | 207 ft | 3 kts | 316° |
| 2026-04-22 22:32 | 23.07256 | 72.62492 | 207 ft | 2 kts | 316° |
| 2026-04-22 22:33 | 23.07252 | 72.62496 | 208 ft | 1 kts | 316° |
| 2026-04-22 22:33 | 23.07255 | 72.62493 | 208 ft | 0 kts | 316° |
| 2026-04-22 22:33 | 23.07259 | 72.62489 | 207 ft | 0 kts | 316° |
| 2026-04-22 22:35 | 23.07260 | 72.62489 | 207 ft | 0 kts | 316° |
| 2026-04-22 22:35 | 23.07266 | 72.62484 | 207 ft | 3 kts | 326° |
| 2026-04-22 22:36 | 23.07296 | 72.62483 | 207 ft | 6 kts | 7° |
| 2026-04-22 22:36 | 23.07321 | 72.62509 | 205 ft | 8 kts | 45° |
| 2026-04-22 22:36 | 23.07376 | 72.62569 | 207 ft | 13 kts | 46° |
| 2026-04-22 22:36 | 23.07447 | 72.62651 | 207 ft | 17 kts | 46° |
| 2026-04-22 22:37 | 23.07522 | 72.62737 | 208 ft | 12 kts | 46° |
| 2026-04-22 22:37 | 23.07527 | 72.62789 | 206 ft | 6 kts | 115° |
| 2026-04-22 22:37 | 23.07490 | 72.62836 | 209 ft | 9 kts | 145° |
| 2026-04-22 22:37 | 23.07465 | 72.62898 | 208 ft | 10 kts | 82° |
| 2026-04-22 22:38 | 23.07492 | 72.62948 | 207 ft | 13 kts | 47° |
| 2026-04-22 22:38 | 23.07601 | 72.63064 | 212 ft | 19 kts | 43° |
| 2026-04-22 22:38 | 23.07672 | 72.63166 | 210 ft | 17 kts | 75° |
| 2026-04-22 22:38 | 23.07702 | 72.63311 | 202 ft | 22 kts | 77° |
| 2026-04-22 22:39 | 23.07760 | 72.63479 | 214 ft | 25 kts | 56° |
| 2026-04-22 22:39 | 23.07894 | 72.63628 | 211 ft | 30 kts | 44° |
| 2026-04-22 22:39 | 23.08052 | 72.63797 | 211 ft | 34 kts | 44° |
| 2026-04-22 22:39 | 23.08166 | 72.63919 | 198 ft | 35 kts | 44° |
| 2026-04-22 22:40 | 23.08345 | 72.64111 | 212 ft | 37 kts | 44° |
| 2026-04-22 22:40 | 23.08536 | 72.64316 | 212 ft | 40 kts | 44° |
| 2026-04-22 22:40 | 23.08730 | 72.64524 | 212 ft | 34 kts | 45° |
| 2026-04-22 22:40 | 23.08841 | 72.64594 | 207 ft | 6 kts | 46° |
| 2026-04-22 22:41 | 23.08839 | 72.64620 | 208 ft | 2 kts | 122° |
| 2026-04-22 22:41 | 23.08831 | 72.64623 | 204 ft | 1 kts | 158° |
| 2026-04-22 22:41 | 23.08823 | 72.64621 | 210 ft | 1 kts | 196° |
| 2026-04-22 22:41 | 23.08812 | 72.64611 | 206 ft | 5 kts | 219° |
| 2026-04-22 22:42 | 23.08807 | 72.64604 | 208 ft | 1 kts | 225° |
| 2026-04-22 22:42 | 23.08665 | 72.64453 | 210 ft | 64 kts | 224° |
| 2026-04-22 22:42 | 23.08185 | 72.63940 | 210 ft | 127 kts | 224° |
| 2026-04-22 22:42 | 23.07428 | 72.63128 | 299 ft | 170 kts | 225° |
| 2026-04-22 22:43 | 23.06586 | 72.62258 | 1021 ft | 164 kts | 224° |
| 2026-04-22 22:43 | 23.05708 | 72.61489 | 1747 ft | 167 kts | 212° |
| 2026-04-22 22:43 | 23.04492 | 72.61215 | 2159 ft | 190 kts | 194° |
| 2026-04-22 22:43 | 23.03326 | 72.60443 | 2498 ft | 206 kts | 225° |
| 2026-04-22 22:44 | 23.02346 | 72.59285 | 3126 ft | 212 kts | 234° |
| 2026-04-22 22:44 | 23.01677 | 72.57801 | 3391 ft | 229 kts | 250° |
| 2026-04-22 22:44 | 23.01253 | 72.56067 | 3640 ft | 246 kts | 257° |
| 2026-04-22 22:44 | 23.00985 | 72.54206 | 4120 ft | 251 kts | 262° |
| 2026-04-22 22:45 | 23.00801 | 72.52318 | 4735 ft | 252 kts | 263° |
| 2026-04-22 22:45 | 23.00640 | 72.50419 | 5298 ft | 253 kts | 263° |
| 2026-04-22 22:45 | 23.00472 | 72.48511 | 5876 ft | 255 kts | 262° |
| 2026-04-22 22:45 | 23.00288 | 72.46595 | 6453 ft | 255 kts | 262° |
| 2026-04-22 22:46 | 23.00087 | 72.44671 | 6957 ft | 258 kts | 261° |
| 2026-04-22 22:46 | 22.99871 | 72.42723 | 7448 ft | 261 kts | 261° |
| 2026-04-22 22:46 | 22.99647 | 72.40759 | 7979 ft | 263 kts | 261° |
| 2026-04-22 22:46 | 22.99418 | 72.38777 | 8506 ft | 266 kts | 261° |
| 2026-04-22 22:47 | 22.99186 | 72.36777 | 9037 ft | 268 kts | 261° |
| 2026-04-22 22:47 | 22.98953 | 72.34760 | 9580 ft | 271 kts | 261° |
| 2026-04-22 22:47 | 22.98718 | 72.32725 | 10012 ft | 277 kts | 261° |
| 2026-04-22 22:47 | 22.98471 | 72.30600 | 10206 ft | 290 kts | 261° |
| 2026-04-22 22:48 | 22.98213 | 72.28378 | 10399 ft | 304 kts | 261° |
| 2026-04-22 22:48 | 22.97944 | 72.26058 | 10589 ft | 316 kts | 261° |
| 2026-04-22 22:48 | 22.97665 | 72.23644 | 10755 ft | 328 kts | 262° |
| 2026-04-22 22:48 | 22.97377 | 72.21148 | 10928 ft | 339 kts | 262° |
| 2026-04-22 22:49 | 22.97082 | 72.18583 | 11189 ft | 345 kts | 262° |
| 2026-04-22 22:49 | 22.96783 | 72.15986 | 11546 ft | 349 kts | 262° |
| 2026-04-22 22:49 | 22.96483 | 72.13391 | 11914 ft | 353 kts | 262° |
| 2026-04-22 22:49 | 22.96176 | 72.10741 | 12272 ft | 356 kts | 262° |
| 2026-04-22 22:50 | 22.95865 | 72.08063 | 12626 ft | 359 kts | 262° |
| 2026-04-22 22:50 | 22.95551 | 72.05365 | 12975 ft | 362 kts | 262° |
| 2026-04-22 22:50 | 22.95234 | 72.02645 | 13320 ft | 365 kts | 263° |
| 2026-04-22 22:50 | 22.94912 | 71.99897 | 13654 ft | 368 kts | 263° |
| 2026-04-22 22:51 | 22.94589 | 71.97131 | 13974 ft | 371 kts | 263° |
| 2026-04-22 22:51 | 22.94262 | 71.94346 | 14278 ft | 373 kts | 263° |
| 2026-04-22 22:51 | 22.93933 | 71.91548 | 14622 ft | 375 kts | 263° |
| 2026-04-22 22:51 | 22.93603 | 71.88742 | 15012 ft | 375 kts | 262° |
| 2026-04-22 22:52 | 22.93272 | 71.85930 | 15355 ft | 377 kts | 262° |
| 2026-04-22 22:52 | 22.92937 | 71.83096 | 15642 ft | 381 kts | 262° |
| 2026-04-22 22:52 | 22.92599 | 71.80234 | 15902 ft | 385 kts | 262° |
| 2026-04-22 22:52 | 22.92257 | 71.77348 | 16267 ft | 386 kts | 262° |
| 2026-04-22 22:53 | 22.91914 | 71.74450 | 16604 ft | 388 kts | 262° |
| 2026-04-22 22:53 | 22.91569 | 71.71547 | 16927 ft | 390 kts | 262° |
| 2026-04-22 22:53 | 22.91219 | 71.68609 | 17213 ft | 394 kts | 262° |
| 2026-04-22 22:53 | 22.90866 | 71.65652 | 17519 ft | 397 kts | 262° |
| 2026-04-22 22:54 | 22.90512 | 71.62680 | 17851 ft | 399 kts | 262° |
| 2026-04-22 22:54 | 22.90154 | 71.59686 | 18167 ft | 401 kts | 261° |
| 2026-04-22 22:54 | 22.89794 | 71.56679 | 18439 ft | 403 kts | 262° |
| 2026-04-22 22:54 | 22.89431 | 71.53656 | 18729 ft | 406 kts | 262° |
| 2026-04-22 22:55 | 22.89066 | 71.50611 | 19019 ft | 407 kts | 261° |
| 2026-04-22 22:55 | 22.88699 | 71.47560 | 19318 ft | 409 kts | 261° |
| 2026-04-22 22:55 | 22.87958 | 71.41420 | 19902 ft | 412 kts | 262° |
| 2026-04-22 22:56 | 22.87584 | 71.38333 | 20186 ft | 414 kts | 262° |
| 2026-04-22 22:56 | 22.87208 | 71.35227 | 20465 ft | 416 kts | 261° |
| 2026-04-22 22:56 | 22.86831 | 71.32113 | 20756 ft | 418 kts | 261° |
| 2026-04-22 22:56 | 22.86451 | 71.28984 | 21040 ft | 419 kts | 261° |
| 2026-04-22 22:57 | 22.86069 | 71.25847 | 21317 ft | 421 kts | 261° |
| 2026-04-22 22:57 | 22.85685 | 71.22693 | 21587 ft | 423 kts | 261° |
| 2026-04-22 22:57 | 22.85298 | 71.19524 | 21856 ft | 425 kts | 261° |
| 2026-04-22 22:57 | 22.84910 | 71.16345 | 22122 ft | 426 kts | 262° |
| 2026-04-22 22:58 | 22.84519 | 71.13157 | 22389 ft | 428 kts | 262° |
| 2026-04-22 22:58 | 22.84125 | 71.09951 | 22654 ft | 429 kts | 261° |
| 2026-04-22 22:58 | 22.83730 | 71.06735 | 22907 ft | 431 kts | 261° |
| 2026-04-22 22:58 | 22.83333 | 71.03508 | 23167 ft | 433 kts | 261° |
| 2026-04-22 22:59 | 22.82933 | 71.00268 | 23398 ft | 434 kts | 261° |
| 2026-04-22 22:59 | 22.82531 | 70.97017 | 23615 ft | 436 kts | 261° |
| 2026-04-22 22:59 | 22.82128 | 70.93759 | 23835 ft | 437 kts | 261° |
| 2026-04-22 22:59 | 22.81723 | 70.90485 | 24049 ft | 438 kts | 261° |
| 2026-04-22 23:00 | 22.81315 | 70.87206 | 24273 ft | 439 kts | 261° |
| 2026-04-22 23:00 | 22.81019 | 70.83916 | 24499 ft | 441 kts | 267° |
| 2026-04-22 23:00 | 22.81050 | 70.80591 | 24712 ft | 442 kts | 271° |
| 2026-04-22 23:00 | 22.81190 | 70.77258 | 24920 ft | 443 kts | 272° |
| 2026-04-22 23:01 | 22.81384 | 70.73922 | 25139 ft | 444 kts | 273° |
| 2026-04-22 23:01 | 22.81604 | 70.70577 | 25361 ft | 445 kts | 274° |
| 2026-04-22 23:01 | 22.81834 | 70.67228 | 25579 ft | 446 kts | 273° |
| 2026-04-22 23:01 | 22.82061 | 70.63870 | 25811 ft | 447 kts | 273° |
| 2026-04-22 23:02 | 22.82284 | 70.60509 | 26040 ft | 448 kts | 273° |
| 2026-04-22 23:02 | 22.82502 | 70.57139 | 26267 ft | 449 kts | 274° |
| 2026-04-22 23:02 | 22.82717 | 70.53755 | 26480 ft | 450 kts | 274° |
| 2026-04-22 23:02 | 22.82929 | 70.50371 | 26788 ft | 449 kts | 274° |
| 2026-04-22 23:03 | 22.83140 | 70.46991 | 27069 ft | 449 kts | 273° |
| 2026-04-22 23:03 | 22.83348 | 70.43621 | 27431 ft | 448 kts | 273° |
| 2026-04-22 23:03 | 22.83556 | 70.40249 | 27681 ft | 449 kts | 273° |
| 2026-04-22 23:03 | 22.83764 | 70.36871 | 27913 ft | 451 kts | 273° |
| 2026-04-22 23:04 | 22.83972 | 70.33474 | 28177 ft | 452 kts | 274° |
| 2026-04-22 23:04 | 22.84178 | 70.30111 | 28432 ft | 453 kts | 274° |
| 2026-04-22 23:04 | 22.84389 | 70.26652 | 28703 ft | 455 kts | 274° |
| 2026-04-22 23:04 | 22.84594 | 70.23271 | 28965 ft | 456 kts | 274° |
| 2026-04-22 23:05 | 22.84802 | 70.19840 | 29233 ft | 457 kts | 274° |
| 2026-04-22 23:05 | 22.85010 | 70.16401 | 29553 ft | 458 kts | 274° |
| 2026-04-22 23:05 | 22.85217 | 70.12950 | 29843 ft | 459 kts | 274° |
| 2026-04-22 23:05 | 22.85424 | 70.09492 | 30073 ft | 461 kts | 274° |
| 2026-04-22 23:06 | 22.85632 | 70.06019 | 30299 ft | 463 kts | 274° |
| 2026-04-22 23:06 | 22.85839 | 70.02530 | 30526 ft | 465 kts | 273° |
| 2026-04-22 23:06 | 22.86046 | 69.99026 | 30766 ft | 466 kts | 273° |
| 2026-04-22 23:06 | 22.86254 | 69.95511 | 31001 ft | 468 kts | 273° |
| 2026-04-22 23:07 | 22.86461 | 69.91982 | 31237 ft | 470 kts | 273° |
| 2026-04-22 23:07 | 22.86669 | 69.88442 | 31476 ft | 472 kts | 273° |
| 2026-04-22 23:07 | 22.86876 | 69.84886 | 31705 ft | 473 kts | 273° |
| 2026-04-22 23:07 | 22.87084 | 69.81323 | 31943 ft | 475 kts | 273° |
| 2026-04-22 23:08 | 22.87291 | 69.77744 | 32156 ft | 476 kts | 273° |
| 2026-04-22 23:08 | 22.87498 | 69.74155 | 32359 ft | 478 kts | 273° |
| 2026-04-22 23:08 | 22.87705 | 69.70550 | 32575 ft | 480 kts | 273° |
| 2026-04-22 23:08 | 22.87921 | 69.66934 | 32776 ft | 481 kts | 273° |
| 2026-04-22 23:09 | 22.88152 | 69.63310 | 32969 ft | 483 kts | 274° |
| 2026-04-22 23:09 | 22.88391 | 69.59669 | 33168 ft | 485 kts | 274° |
| 2026-04-22 23:09 | 22.88631 | 69.56023 | 33352 ft | 486 kts | 274° |
| 2026-04-22 23:09 | 22.88870 | 69.52363 | 33603 ft | 487 kts | 273° |
| 2026-04-22 23:10 | 22.89107 | 69.48707 | 33894 ft | 486 kts | 273° |
| 2026-04-22 23:10 | 22.89341 | 69.45057 | 34173 ft | 485 kts | 273° |
| 2026-04-22 23:10 | 22.89572 | 69.41413 | 34437 ft | 483 kts | 273° |
| 2026-04-22 23:10 | 22.89802 | 69.37774 | 34707 ft | 482 kts | 273° |
| 2026-04-22 23:11 | 22.90030 | 69.34152 | 34968 ft | 482 kts | 274° |
| 2026-04-22 23:11 | 22.90256 | 69.30537 | 35237 ft | 481 kts | 274° |
| 2026-04-22 23:11 | 22.90481 | 69.26919 | 35512 ft | 480 kts | 274° |
| 2026-04-22 23:11 | 22.90705 | 69.23312 | 35763 ft | 479 kts | 274° |
| 2026-04-22 23:12 | 22.90928 | 69.19710 | 36024 ft | 478 kts | 274° |
| 2026-04-22 23:12 | 22.91150 | 69.16113 | 36323 ft | 477 kts | 274° |
| 2026-04-22 23:12 | 22.91370 | 69.12536 | 36631 ft | 475 kts | 274° |
| 2026-04-22 23:12 | 22.91589 | 69.08968 | 36899 ft | 474 kts | 274° |
| 2026-04-22 23:13 | 22.91806 | 69.05405 | 37155 ft | 473 kts | 274° |
| 2026-04-22 23:13 | 22.92023 | 69.01846 | 37407 ft | 472 kts | 274° |
| 2026-04-22 23:13 | 22.92238 | 68.98293 | 37680 ft | 472 kts | 274° |
| 2026-04-22 23:13 | 22.92449 | 68.94794 | 37930 ft | 471 kts | 274° |
| 2026-04-22 23:14 | 22.92662 | 68.91256 | 38175 ft | 470 kts | 274° |
| 2026-04-22 23:14 | 22.92874 | 68.87724 | 38467 ft | 468 kts | 274° |
| 2026-04-22 23:14 | 22.93084 | 68.84209 | 38694 ft | 466 kts | 274° |
| 2026-04-22 23:14 | 22.93292 | 68.80706 | 38898 ft | 465 kts | 274° |
| 2026-04-22 23:15 | 22.93499 | 68.77205 | 39043 ft | 465 kts | 274° |
| 2026-04-22 23:15 | 22.93706 | 68.73700 | 39177 ft | 465 kts | 274° |
| 2026-04-22 23:15 | 22.93912 | 68.70200 | 39327 ft | 465 kts | 274° |
| 2026-04-22 23:15 | 22.94118 | 68.66695 | 39475 ft | 465 kts | 274° |
| 2026-04-22 23:16 | 22.94322 | 68.63198 | 39606 ft | 465 kts | 274° |
| 2026-04-22 23:16 | 22.94525 | 68.59698 | 39741 ft | 465 kts | 274° |
| 2026-04-22 23:16 | 22.94931 | 68.52694 | 39830 ft | 465 kts | 274° |
| 2026-04-22 23:17 | 22.95332 | 68.45700 | 39833 ft | 464 kts | 274° |
| 2026-04-22 23:17 | 22.95730 | 68.38705 | 39827 ft | 464 kts | 274° |
| 2026-04-22 23:18 | 22.95957 | 68.31698 | 39830 ft | 465 kts | 271° |
| 2026-04-22 23:18 | 22.95889 | 68.24686 | 39827 ft | 465 kts | 270° |
| 2026-04-22 23:19 | 22.95818 | 68.17671 | 39829 ft | 465 kts | 271° |
| 2026-04-22 23:19 | 22.95794 | 68.10665 | 39823 ft | 464 kts | 271° |
| 2026-04-22 23:20 | 22.95792 | 68.03724 | 39831 ft | 463 kts | 271° |
| 2026-04-22 23:20 | 22.95791 | 67.96731 | 39834 ft | 463 kts | 271° |
| 2026-04-22 23:21 | 22.95784 | 67.89744 | 39835 ft | 463 kts | 271° |
| 2026-04-22 23:21 | 22.95784 | 67.82753 | 39832 ft | 463 kts | 272° |
| 2026-04-22 23:22 | 22.95803 | 67.75766 | 39826 ft | 463 kts | 272° |
| 2026-04-22 23:22 | 22.95821 | 67.68775 | 39834 ft | 463 kts | 272° |
| 2026-04-22 23:23 | 22.95833 | 67.61789 | 39835 ft | 463 kts | 271° |
| 2026-04-22 23:23 | 22.95840 | 67.54800 | 39840 ft | 463 kts | 271° |
| 2026-04-22 23:24 | 22.95844 | 67.47812 | 39837 ft | 463 kts | 271° |
| 2026-04-22 23:24 | 22.95845 | 67.40835 | 39837 ft | 462 kts | 271° |
| 2026-04-22 23:25 | 22.95843 | 67.33861 | 39837 ft | 462 kts | 271° |
| 2026-04-22 23:25 | 22.95838 | 67.26884 | 39839 ft | 462 kts | 271° |
| 2026-04-22 23:26 | 22.95830 | 67.19909 | 39846 ft | 462 kts | 271° |
| 2026-04-22 23:26 | 22.95821 | 67.14115 | 39845 ft | 462 kts | 271° |
| 2026-04-22 23:27 | 22.95807 | 67.07145 | 39838 ft | 462 kts | 271° |
| 2026-04-22 23:27 | 22.95791 | 67.00180 | 39839 ft | 461 kts | 271° |
| 2026-04-22 23:28 | 22.95786 | 66.92101 | 39838 ft | 461 kts | 271° |
| 2026-04-22 23:28 | 22.95826 | 66.86272 | 39842 ft | 461 kts | 272° |
| 2026-04-22 23:29 | 22.95879 | 66.79326 | 39846 ft | 460 kts | 272° |
| 2026-04-22 23:29 | 22.95922 | 66.72379 | 39843 ft | 460 kts | 272° |
| 2026-04-22 23:30 | 22.95958 | 66.65439 | 39842 ft | 460 kts | 271° |
| 2026-04-22 23:30 | 22.95989 | 66.58491 | 39847 ft | 460 kts | 271° |
| 2026-04-22 23:31 | 22.96017 | 66.51552 | 39843 ft | 460 kts | 271° |
| 2026-04-22 23:31 | 22.96042 | 66.44616 | 39844 ft | 460 kts | 271° |
| 2026-04-22 23:32 | 22.96064 | 66.37680 | 39843 ft | 460 kts | 271° |
| 2026-04-22 23:32 | 22.96083 | 66.30745 | 39845 ft | 460 kts | 271° |
| 2026-04-22 23:33 | 22.96099 | 66.23858 | 39839 ft | 460 kts | 271° |
| 2026-04-22 23:33 | 22.96113 | 66.16932 | 39846 ft | 459 kts | 271° |
| 2026-04-22 23:34 | 22.96123 | 66.10003 | 39843 ft | 459 kts | 271° |
| 2026-04-22 23:34 | 22.96130 | 66.03074 | 39843 ft | 459 kts | 271° |
| 2026-04-22 23:35 | 22.96135 | 65.96148 | 39842 ft | 459 kts | 271° |
| 2026-04-22 23:35 | 22.96136 | 65.89221 | 39839 ft | 459 kts | 271° |
| 2026-04-22 23:36 | 22.96134 | 65.82296 | 39844 ft | 459 kts | 271° |
| 2026-04-22 23:36 | 22.96129 | 65.75373 | 39842 ft | 459 kts | 271° |
| 2026-04-22 23:37 | 22.96121 | 65.68455 | 39842 ft | 459 kts | 271° |
| 2026-04-22 23:37 | 22.96111 | 65.61532 | 39845 ft | 459 kts | 271° |
| 2026-04-22 23:38 | 22.96097 | 65.54613 | 39840 ft | 458 kts | 271° |
| 2026-04-22 23:38 | 22.96083 | 65.48872 | 39840 ft | 458 kts | 271° |
| 2026-04-22 23:39 | 22.96060 | 65.40792 | 39841 ft | 458 kts | 271° |
| 2026-04-22 23:39 | 22.96038 | 65.33886 | 39838 ft | 458 kts | 271° |
| 2026-04-22 23:40 | 22.96012 | 65.26975 | 39838 ft | 458 kts | 271° |
| 2026-04-22 23:40 | 22.95983 | 65.20071 | 39842 ft | 457 kts | 271° |
| 2026-04-22 23:41 | 22.95952 | 65.13169 | 39839 ft | 457 kts | 271° |
| 2026-04-22 23:41 | 22.95917 | 65.06272 | 39843 ft | 457 kts | 271° |
| 2026-04-22 23:42 | 22.95879 | 64.99424 | 39842 ft | 457 kts | 271° |
| 2026-04-22 23:42 | 22.95839 | 64.92532 | 39839 ft | 457 kts | 271° |
| 2026-04-22 23:43 | 22.95798 | 64.85643 | 39837 ft | 456 kts | 271° |
| 2026-04-22 23:43 | 22.96269 | 64.78793 | 39836 ft | 455 kts | 277° |
| 2026-04-22 23:44 | 22.96970 | 64.71966 | 39836 ft | 455 kts | 277° |
| 2026-04-22 23:44 | 22.97707 | 64.65149 | 39836 ft | 455 kts | 277° |
| 2026-04-22 23:45 | 22.98438 | 64.58330 | 39838 ft | 455 kts | 277° |
| 2026-04-22 23:45 | 22.99160 | 64.51503 | 39837 ft | 455 kts | 277° |
| 2026-04-22 23:46 | 22.99875 | 64.44681 | 39838 ft | 455 kts | 277° |
| 2026-04-22 23:46 | 23.00587 | 64.37860 | 39838 ft | 455 kts | 277° |
| 2026-04-22 23:47 | 23.01296 | 64.31036 | 39838 ft | 455 kts | 277° |
| 2026-04-22 23:47 | 23.02002 | 64.24218 | 39839 ft | 454 kts | 277° |
| 2026-04-22 23:48 | 23.02705 | 64.17402 | 39831 ft | 454 kts | 277° |
| 2026-04-22 23:48 | 23.03405 | 64.10586 | 39837 ft | 454 kts | 277° |
| 2026-04-22 23:49 | 23.04101 | 64.03771 | 39828 ft | 454 kts | 277° |
| 2026-04-22 23:49 | 23.04794 | 63.96961 | 39834 ft | 454 kts | 277° |
| 2026-04-22 23:50 | 23.05485 | 63.90150 | 39834 ft | 454 kts | 277° |
| 2026-04-22 23:50 | 23.06177 | 63.83342 | 39834 ft | 454 kts | 278° |
| 2026-04-22 23:51 | 23.06889 | 63.76541 | 39834 ft | 454 kts | 278° |
| 2026-04-22 23:51 | 23.07602 | 63.69731 | 39828 ft | 453 kts | 278° |
| 2026-04-22 23:52 | 23.08309 | 63.62930 | 39829 ft | 453 kts | 278° |
| 2026-04-22 23:52 | 23.09006 | 63.56180 | 39829 ft | 453 kts | 278° |
| 2026-04-22 23:53 | 23.09705 | 63.49378 | 39829 ft | 453 kts | 278° |
| 2026-04-22 23:53 | 23.10400 | 63.42581 | 39829 ft | 453 kts | 278° |
| 2026-04-22 23:54 | 23.11093 | 63.35783 | 39826 ft | 453 kts | 278° |
| 2026-04-22 23:54 | 23.11781 | 63.28993 | 39826 ft | 452 kts | 278° |
| 2026-04-22 23:55 | 23.12468 | 63.22197 | 39829 ft | 452 kts | 278° |
| 2026-04-22 23:55 | 23.13151 | 63.15402 | 39828 ft | 453 kts | 278° |
| 2026-04-22 23:56 | 23.13831 | 63.08604 | 39829 ft | 452 kts | 278° |
| 2026-04-22 23:56 | 23.14507 | 63.01822 | 39830 ft | 451 kts | 278° |
| 2026-04-22 23:57 | 23.15180 | 62.95047 | 39832 ft | 451 kts | 278° |
| 2026-04-22 23:57 | 23.15849 | 62.88273 | 39823 ft | 451 kts | 278° |
| 2026-04-22 23:58 | 23.16515 | 62.81498 | 39822 ft | 451 kts | 278° |
| 2026-04-22 23:58 | 23.17178 | 62.74727 | 39825 ft | 450 kts | 278° |
| 2026-04-22 23:59 | 23.17834 | 62.68006 | 39826 ft | 450 kts | 278° |
| 2026-04-22 23:59 | 23.18495 | 62.61196 | 39825 ft | 450 kts | 278° |
| 2026-04-23 00:00 | 23.19470 | 62.51092 | 39819 ft | 450 kts | 278° |
| 2026-04-23 00:01 | 23.20119 | 62.44326 | 39822 ft | 450 kts | 278° |
| 2026-04-23 00:01 | 23.20766 | 62.37557 | 39821 ft | 450 kts | 278° |
| 2026-04-23 00:02 | 23.21410 | 62.30783 | 39820 ft | 450 kts | 278° |
| 2026-04-23 00:02 | 23.21947 | 62.25106 | 39818 ft | 450 kts | 278° |
| 2026-04-23 00:03 | 23.22688 | 62.17240 | 39817 ft | 450 kts | 278° |
| 2026-04-23 00:03 | 23.23324 | 62.10463 | 39816 ft | 450 kts | 278° |
| 2026-04-23 00:04 | 23.23956 | 62.03693 | 39816 ft | 450 kts | 278° |
| 2026-04-23 00:04 | 23.24585 | 61.96920 | 39815 ft | 450 kts | 278° |
| 2026-04-23 00:05 | 23.25212 | 61.90149 | 39811 ft | 450 kts | 278° |
| 2026-04-23 00:05 | 23.25835 | 61.83374 | 39816 ft | 450 kts | 278° |
| 2026-04-23 00:06 | 23.26455 | 61.76603 | 39812 ft | 450 kts | 278° |
| 2026-04-23 00:06 | 23.27072 | 61.69832 | 39812 ft | 450 kts | 278° |
| 2026-04-23 00:07 | 23.27687 | 61.63054 | 39809 ft | 450 kts | 278° |
| 2026-04-23 00:07 | 23.28299 | 61.56275 | 39807 ft | 450 kts | 278° |
| 2026-04-23 00:08 | 23.28908 | 61.49500 | 39810 ft | 450 kts | 278° |
| 2026-04-23 00:08 | 23.29514 | 61.42720 | 39810 ft | 450 kts | 278° |
| 2026-04-23 00:09 | 23.30117 | 61.35941 | 39807 ft | 450 kts | 278° |
| 2026-04-23 00:09 | 23.30717 | 61.29164 | 39800 ft | 451 kts | 278° |
| 2026-04-23 00:10 | 23.31315 | 61.22379 | 39804 ft | 451 kts | 278° |
| 2026-04-23 00:10 | 23.31927 | 61.15636 | 39804 ft | 450 kts | 279° |
| 2026-04-23 00:11 | 23.32775 | 61.08845 | 39801 ft | 450 kts | 280° |
| 2026-04-23 00:11 | 23.33681 | 61.02113 | 39793 ft | 450 kts | 280° |
| 2026-04-23 00:12 | 23.34550 | 60.95407 | 39801 ft | 450 kts | 280° |
| 2026-04-23 00:12 | 23.35397 | 60.88652 | 39798 ft | 451 kts | 279° |
| 2026-04-23 00:13 | 23.36234 | 60.81892 | 39796 ft | 451 kts | 279° |
| 2026-04-23 00:13 | 23.37068 | 60.75136 | 39797 ft | 451 kts | 279° |
| 2026-04-23 00:14 | 23.37902 | 60.68381 | 39796 ft | 450 kts | 279° |
| 2026-04-23 00:14 | 23.39442 | 60.61823 | 39792 ft | 447 kts | 290° |
| 2026-04-23 00:15 | 23.41281 | 60.56523 | 39793 ft | 447 kts | 292° |
| 2026-04-23 00:15 | 23.43590 | 60.50243 | 39787 ft | 447 kts | 292° |
| 2026-04-23 00:16 | 23.45912 | 60.43966 | 39789 ft | 447 kts | 292° |
| 2026-04-23 00:16 | 23.48217 | 60.37681 | 39788 ft | 446 kts | 292° |
| 2026-04-23 00:17 | 23.50493 | 60.31437 | 39793 ft | 446 kts | 292° |
| 2026-04-23 00:17 | 23.52780 | 60.25148 | 39787 ft | 447 kts | 292° |
| 2026-04-23 00:18 | 23.55064 | 60.18857 | 39787 ft | 447 kts | 292° |
| 2026-04-23 00:18 | 23.57347 | 60.12565 | 39784 ft | 446 kts | 292° |
| 2026-04-23 00:19 | 23.59624 | 60.06277 | 39788 ft | 446 kts | 292° |
| 2026-04-23 00:19 | 23.61895 | 59.99998 | 39785 ft | 446 kts | 292° |
| 2026-04-23 00:20 | 23.64170 | 59.93698 | 39786 ft | 446 kts | 292° |
| 2026-04-23 00:20 | 23.66440 | 59.87404 | 39787 ft | 446 kts | 291° |
| 2026-04-23 00:21 | 23.68703 | 59.81121 | 39789 ft | 445 kts | 291° |
| 2026-04-23 00:21 | 23.70960 | 59.74843 | 39787 ft | 444 kts | 291° |
| 2026-04-23 00:22 | 23.73215 | 59.68564 | 39787 ft | 444 kts | 291° |
| 2026-04-23 00:22 | 23.75468 | 59.62279 | 39786 ft | 444 kts | 291° |
| 2026-04-23 00:23 | 23.77716 | 59.56000 | 39783 ft | 444 kts | 291° |
| 2026-04-23 00:23 | 23.79960 | 59.49721 | 39782 ft | 443 kts | 291° |
| 2026-04-23 00:24 | 23.82198 | 59.43452 | 39785 ft | 443 kts | 291° |
| 2026-04-23 00:24 | 23.84435 | 59.37175 | 39784 ft | 443 kts | 291° |
| 2026-04-23 00:25 | 23.86668 | 59.30901 | 39785 ft | 443 kts | 291° |
| 2026-04-23 00:25 | 23.88894 | 59.24636 | 39787 ft | 442 kts | 291° |
| 2026-04-23 00:26 | 23.91113 | 59.18384 | 39785 ft | 441 kts | 291° |
| 2026-04-23 00:26 | 23.93327 | 59.12124 | 39779 ft | 441 kts | 290° |
| 2026-04-23 00:27 | 23.95390 | 59.05805 | 39785 ft | 441 kts | 289° |
| 2026-04-23 00:27 | 23.97365 | 58.99505 | 39782 ft | 441 kts | 289° |
| 2026-04-23 00:28 | 23.99367 | 58.93171 | 39783 ft | 440 kts | 289° |
| 2026-04-23 00:28 | 24.01384 | 58.86851 | 39790 ft | 440 kts | 289° |
| 2026-04-23 00:29 | 24.03401 | 58.80541 | 39788 ft | 440 kts | 289° |
| 2026-04-23 00:29 | 24.05416 | 58.74229 | 39788 ft | 439 kts | 289° |
| 2026-04-23 00:30 | 24.07427 | 58.67917 | 39788 ft | 439 kts | 289° |
| 2026-04-23 00:30 | 24.09436 | 58.61599 | 39790 ft | 439 kts | 289° |
| 2026-04-23 00:31 | 24.11444 | 58.55284 | 39785 ft | 439 kts | 289° |
| 2026-04-23 00:31 | 24.13446 | 58.48970 | 39790 ft | 439 kts | 289° |
| 2026-04-23 00:32 | 24.15443 | 58.42650 | 39788 ft | 439 kts | 289° |
| 2026-04-23 00:32 | 24.17435 | 58.36342 | 39784 ft | 438 kts | 289° |
| 2026-04-23 00:33 | 24.19423 | 58.30037 | 39780 ft | 438 kts | 289° |
| 2026-04-23 00:33 | 24.21408 | 58.23735 | 39780 ft | 438 kts | 289° |
| 2026-04-23 00:34 | 24.23390 | 58.17431 | 39783 ft | 437 kts | 289° |
| 2026-04-23 00:34 | 24.25365 | 58.11137 | 39798 ft | 436 kts | 289° |
| 2026-04-23 00:35 | 24.27335 | 58.04852 | 39784 ft | 436 kts | 289° |
| 2026-04-23 00:35 | 24.29304 | 57.98559 | 39785 ft | 436 kts | 289° |
| 2026-04-23 00:36 | 24.31268 | 57.92271 | 39789 ft | 436 kts | 289° |
| 2026-04-23 00:36 | 24.33216 | 57.86025 | 39788 ft | 435 kts | 289° |
| 2026-04-23 00:37 | 24.35170 | 57.79748 | 39790 ft | 435 kts | 289° |
| 2026-04-23 00:37 | 24.37121 | 57.73473 | 39789 ft | 435 kts | 289° |
| 2026-04-23 00:38 | 24.39071 | 57.67190 | 39787 ft | 435 kts | 289° |
| 2026-04-23 00:38 | 24.41015 | 57.60916 | 39785 ft | 434 kts | 289° |
| 2026-04-23 00:39 | 24.42953 | 57.54650 | 39789 ft | 433 kts | 289° |
| 2026-04-23 00:39 | 24.44890 | 57.48389 | 39787 ft | 433 kts | 289° |
| 2026-04-23 00:40 | 24.46823 | 57.42122 | 39786 ft | 433 kts | 289° |
| 2026-04-23 00:40 | 24.48749 | 57.35854 | 39798 ft | 433 kts | 289° |
| 2026-04-23 00:41 | 24.50670 | 57.29599 | 39787 ft | 432 kts | 289° |
| 2026-04-23 00:41 | 24.52585 | 57.23356 | 39570 ft | 428 kts | 289° |
| 2026-04-23 00:41 | 24.53534 | 57.20259 | 38874 ft | 429 kts | 289° |
| 2026-04-23 00:42 | 24.54489 | 57.17138 | 38056 ft | 433 kts | 289° |
| 2026-04-23 00:42 | 24.55452 | 57.13992 | 37098 ft | 437 kts | 289° |
| 2026-04-23 00:42 | 24.56424 | 57.10815 | 36117 ft | 442 kts | 289° |
| 2026-04-23 00:42 | 24.57408 | 57.07594 | 35172 ft | 447 kts | 289° |
| 2026-04-23 00:43 | 24.58401 | 57.04344 | 34222 ft | 451 kts | 289° |
| 2026-04-23 00:43 | 24.59404 | 57.01054 | 33189 ft | 456 kts | 289° |
| 2026-04-23 00:43 | 24.60419 | 56.97722 | 32004 ft | 464 kts | 289° |
| 2026-04-23 00:43 | 24.61452 | 56.94326 | 30781 ft | 473 kts | 289° |
| 2026-04-23 00:44 | 24.62503 | 56.90871 | 29564 ft | 482 kts | 289° |
| 2026-04-23 00:44 | 24.63569 | 56.87364 | 28484 ft | 485 kts | 288° |
| 2026-04-23 00:44 | 24.64879 | 56.83967 | 27660 ft | 482 kts | 297° |
| 2026-04-23 00:44 | 24.66486 | 56.80757 | 26968 ft | 477 kts | 299° |
| 2026-04-23 00:45 | 24.68151 | 56.77622 | 26254 ft | 473 kts | 300° |
| 2026-04-23 00:45 | 24.69840 | 56.74544 | 25512 ft | 466 kts | 300° |
| 2026-04-23 00:45 | 24.71510 | 56.71545 | 24321 ft | 456 kts | 300° |
| 2026-04-23 00:45 | 24.73164 | 56.68581 | 22975 ft | 459 kts | 300° |
| 2026-04-23 00:46 | 24.74837 | 56.65572 | 22133 ft | 458 kts | 300° |
| 2026-04-23 00:46 | 24.76479 | 56.62609 | 21536 ft | 450 kts | 300° |
| 2026-04-23 00:46 | 24.78093 | 56.59686 | 20893 ft | 444 kts | 300° |
| 2026-04-23 00:46 | 24.79689 | 56.56790 | 20216 ft | 440 kts | 300° |
| 2026-04-23 00:47 | 24.81242 | 56.53965 | 19546 ft | 436 kts | 300° |
| 2026-04-23 00:47 | 24.82807 | 56.51113 | 18873 ft | 433 kts | 300° |
| 2026-04-23 00:47 | 24.84359 | 56.48283 | 18194 ft | 430 kts | 300° |
| 2026-04-23 00:47 | 24.85901 | 56.45471 | 17460 ft | 427 kts | 300° |
| 2026-04-23 00:48 | 24.87368 | 56.42656 | 16736 ft | 422 kts | 294° |
| 2026-04-23 00:48 | 24.88225 | 56.39606 | 16074 ft | 415 kts | 278° |
| 2026-04-23 00:48 | 24.88436 | 56.36460 | 15410 ft | 410 kts | 270° |
| 2026-04-23 00:48 | 24.88392 | 56.33337 | 14750 ft | 406 kts | 267° |
| 2026-04-23 00:49 | 24.88222 | 56.30250 | 14103 ft | 402 kts | 265° |
| 2026-04-23 00:49 | 24.88145 | 56.27204 | 13636 ft | 393 kts | 274° |
| 2026-04-23 00:49 | 24.88720 | 56.24321 | 13402 ft | 379 kts | 290° |
| 2026-04-23 00:49 | 24.89821 | 56.21742 | 13180 ft | 365 kts | 296° |
| 2026-04-23 00:50 | 24.90999 | 56.19335 | 13072 ft | 349 kts | 297° |
| 2026-04-23 00:50 | 24.92146 | 56.17051 | 12960 ft | 333 kts | 298° |
| 2026-04-23 00:50 | 24.93250 | 56.14874 | 12844 ft | 319 kts | 298° |
| 2026-04-23 00:50 | 24.94313 | 56.12789 | 12742 ft | 305 kts | 297° |
| 2026-04-23 00:51 | 24.95332 | 56.10798 | 12635 ft | 292 kts | 297° |
| 2026-04-23 00:51 | 24.96313 | 56.08882 | 12425 ft | 283 kts | 297° |
| 2026-04-23 00:51 | 24.97225 | 56.07003 | 12249 ft | 272 kts | 291° |
| 2026-04-23 00:51 | 24.97787 | 56.05021 | 11698 ft | 275 kts | 278° |
| 2026-04-23 00:52 | 24.98055 | 56.02922 | 10988 ft | 286 kts | 274° |
| 2026-04-23 00:52 | 24.98253 | 56.00717 | 10418 ft | 291 kts | 273° |
| 2026-04-23 00:52 | 24.98438 | 55.98488 | 9963 ft | 292 kts | 273° |
| 2026-04-23 00:52 | 24.98618 | 55.96269 | 9526 ft | 291 kts | 272° |
| 2026-04-23 00:53 | 24.98796 | 55.94049 | 9066 ft | 290 kts | 272° |
| 2026-04-23 00:53 | 24.98971 | 55.91864 | 8467 ft | 283 kts | 272° |
| 2026-04-23 00:53 | 24.99142 | 55.89717 | 8074 ft | 281 kts | 272° |
| 2026-04-23 00:53 | 24.99311 | 55.87568 | 7747 ft | 281 kts | 272° |
| 2026-04-23 00:54 | 24.99480 | 55.85431 | 7447 ft | 279 kts | 272° |
| 2026-04-23 00:54 | 24.99678 | 55.83304 | 7118 ft | 279 kts | 277° |
| 2026-04-23 00:54 | 25.00307 | 55.81279 | 6801 ft | 282 kts | 295° |
| 2026-04-23 00:54 | 25.01300 | 55.79416 | 6463 ft | 283 kts | 299° |
| 2026-04-23 00:55 | 25.02351 | 55.77569 | 6162 ft | 284 kts | 300° |
| 2026-04-23 00:55 | 25.03467 | 55.75786 | 5798 ft | 281 kts | 303° |
| 2026-04-23 00:55 | 25.04555 | 55.74013 | 5461 ft | 278 kts | 301° |
| 2026-04-23 00:55 | 25.05589 | 55.72242 | 5276 ft | 269 kts | 300° |
| 2026-04-23 00:56 | 25.06546 | 55.70529 | 5151 ft | 256 kts | 299° |
| 2026-04-23 00:56 | 25.07384 | 55.68881 | 5159 ft | 238 kts | 295° |
| 2026-04-23 00:56 | 25.08136 | 55.67331 | 5151 ft | 221 kts | 298° |
| 2026-04-23 00:56 | 25.08923 | 55.65926 | 5176 ft | 212 kts | 301° |
| 2026-04-23 00:57 | 25.09714 | 55.64553 | 5083 ft | 212 kts | 299° |
| 2026-04-23 00:57 | 25.10485 | 55.63164 | 4831 ft | 212 kts | 299° |
| 2026-04-23 00:57 | 25.11253 | 55.61774 | 4519 ft | 213 kts | 299° |
| 2026-04-23 00:57 | 25.12030 | 55.60377 | 4179 ft | 214 kts | 299° |
| 2026-04-23 00:58 | 25.12808 | 55.58975 | 3867 ft | 214 kts | 298° |
| 2026-04-23 00:58 | 25.13581 | 55.57578 | 3580 ft | 213 kts | 298° |
| 2026-04-23 00:58 | 25.14349 | 55.56193 | 3306 ft | 211 kts | 298° |
| 2026-04-23 00:58 | 25.15111 | 55.54817 | 3057 ft | 208 kts | 298° |
| 2026-04-23 00:59 | 25.15857 | 55.53470 | 2802 ft | 204 kts | 298° |
| 2026-04-23 00:59 | 25.16591 | 55.52141 | 2555 ft | 201 kts | 300° |
| 2026-04-23 00:59 | 25.17310 | 55.50843 | 2308 ft | 195 kts | 300° |
| 2026-04-23 00:59 | 25.18002 | 55.49592 | 2052 ft | 186 kts | 300° |
| 2026-04-23 01:00 | 25.18653 | 55.48413 | 1815 ft | 175 kts | 301° |
| 2026-04-23 01:00 | 25.19274 | 55.47290 | 1615 ft | 168 kts | 302° |
| 2026-04-23 01:00 | 25.19870 | 55.46213 | 1387 ft | 162 kts | 301° |
| 2026-04-23 01:00 | 25.20444 | 55.45178 | 1197 ft | 153 kts | 301° |
| 2026-04-23 01:01 | 25.20984 | 55.44201 | 999 ft | 146 kts | 301° |
| 2026-04-23 01:01 | 25.21514 | 55.43247 | 815 ft | 146 kts | 302° |
| 2026-04-23 01:01 | 25.21864 | 55.42616 | 707 ft | 144 kts | 302° |
| 2026-04-23 01:01 | 25.22384 | 55.41677 | 521 ft | 142 kts | 302° |
| 2026-04-23 01:02 | 25.22898 | 55.40749 | 335 ft | 141 kts | 302° |
| 2026-04-23 01:02 | 25.23406 | 55.39830 | 150 ft | 140 kts | 302° |
| 2026-04-23 01:02 | 25.23905 | 55.38921 | 36 ft | 129 kts | 302° |
| 2026-04-23 01:02 | 25.24302 | 55.38205 | 39 ft | 89 kts | 301° |
| 2026-04-23 01:03 | 25.24553 | 55.37755 | 34 ft | 52 kts | 301° |
| 2026-04-23 01:03 | 25.24693 | 55.37502 | 34 ft | 37 kts | 301° |
| 2026-04-23 01:03 | 25.24775 | 55.37283 | 36 ft | 23 kts | 281° |
| 2026-04-23 01:03 | 25.24788 | 55.37130 | 33 ft | 17 kts | 272° |
| 2026-04-23 01:04 | 25.24790 | 55.37068 | 31 ft | 0 kts | 271° |
| 2026-04-23 01:04 | 25.24788 | 55.36985 | 30 ft | 10 kts | 253° |
| 2026-04-23 01:05 | 25.24734 | 55.36930 | 28 ft | 13 kts | 210° |
| 2026-04-23 01:05 | 25.24645 | 55.36871 | 28 ft | 17 kts | 211° |
| 2026-04-23 01:05 | 25.24533 | 55.36796 | 27 ft | 21 kts | 211° |
| 2026-04-23 01:05 | 25.24421 | 55.36702 | 27 ft | 18 kts | 230° |
| 2026-04-23 01:06 | 25.24376 | 55.36583 | 27 ft | 18 kts | 260° |
| 2026-04-23 01:06 | 25.24399 | 55.36446 | 27 ft | 15 kts | 296° |
| 2026-04-23 01:06 | 25.24456 | 55.36341 | 27 ft | 17 kts | 302° |
| 2026-04-23 01:06 | 25.24501 | 55.36290 | 27 ft | 4 kts | 1° |
| 2026-04-23 01:07 | 25.24535 | 55.36301 | 27 ft | 6 kts | 26° |
| 2026-04-23 01:07 | 25.24582 | 55.36334 | 27 ft | 7 kts | 32° |
| 2026-04-23 01:07 | 25.24625 | 55.36362 | 27 ft | 6 kts | 31° |
| 2026-04-23 01:07 | 25.24632 | 55.36367 | 27 ft | 0 kts | 31° |